createdAt,value
2023-03-29T00:01:35.441Z,1.85
2023-03-29T00:04:04.638Z,1.88
2023-03-29T00:06:34.676Z,1.83
2023-03-29T00:09:05.276Z,1.76
2023-03-29T00:11:33.162Z,1.63
2023-03-29T00:14:00.859Z,1.69
2023-03-29T00:16:28.608Z,1.60
2023-03-29T00:18:56.361Z,1.67
2023-03-29T00:21:24.017Z,1.70
2023-03-29T00:23:53.070Z,1.67
2023-03-29T00:26:20.952Z,1.64
2023-03-29T00:28:48.628Z,1.65
2023-03-29T00:31:18.149Z,1.67
2023-03-29T00:33:47.445Z,1.63
2023-03-29T00:36:16.008Z,1.79
2023-03-29T00:38:43.736Z,1.79
2023-03-29T00:41:12.762Z,1.86
2023-03-29T00:43:54.362Z,1.94
2023-03-29T00:46:22.208Z,1.90
2023-03-29T00:48:52.243Z,1.81
2023-03-29T00:51:21.900Z,1.80
2023-03-29T00:53:51.734Z,1.75
2023-03-29T00:56:24.970Z,1.74
2023-03-29T00:58:58.426Z,1.80
2023-03-29T01:01:33.898Z,1.82
2023-03-29T01:04:05.827Z,1.86
2023-03-29T01:06:37.462Z,1.81
2023-03-29T01:09:10.258Z,1.71
2023-03-29T01:11:42.964Z,1.75
2023-03-29T01:14:16.864Z,1.75
2023-03-29T01:16:45.875Z,1.75
2023-03-29T01:19:16.954Z,1.72
2023-03-29T01:21:51.520Z,1.67
2023-03-29T01:24:41.934Z,1.72
2023-03-29T01:27:16.783Z,1.78
2023-03-29T01:29:50.044Z,1.81
2023-03-29T01:32:23.192Z,1.78
2023-03-29T01:34:57.611Z,1.77
2023-03-29T01:37:30.212Z,1.65
2023-03-29T01:39:57.877Z,1.74
2023-03-29T01:42:36.579Z,1.66
2023-03-29T01:45:14.766Z,1.69
2023-03-29T01:47:48.797Z,1.71
2023-03-29T01:50:20.717Z,1.65
2023-03-29T01:52:53.623Z,1.63
2023-03-29T01:55:25.112Z,1.62
2023-03-29T01:57:55.554Z,1.55
2023-03-29T02:00:27.736Z,1.55
2023-03-29T02:03:00.283Z,1.47
2023-03-29T02:05:29.356Z,1.45
2023-03-29T02:07:59.383Z,1.45
2023-03-29T02:10:27.895Z,1.45
2023-03-29T02:12:56.320Z,1.44
2023-03-29T02:15:25.648Z,1.42
2023-03-29T02:17:53.453Z,1.41
2023-03-29T02:20:25.136Z,1.39
2023-03-29T02:22:59.506Z,1.34
2023-03-29T02:25:27.226Z,1.31
2023-03-29T02:27:55.881Z,1.27
2023-03-29T02:30:28.590Z,1.32
2023-03-29T02:33:02.007Z,1.27
2023-03-29T02:35:36.348Z,1.33
2023-03-29T02:38:06.864Z,1.37
2023-03-29T02:40:37.566Z,1.33
2023-03-29T02:43:08.656Z,1.36
2023-03-29T02:45:38.952Z,1.40
2023-03-29T02:48:10.961Z,1.47
2023-03-29T02:50:40.549Z,1.49
2023-03-29T02:53:14.060Z,1.43
2023-03-29T02:55:41.722Z,1.41
2023-03-29T02:58:09.425Z,1.37
2023-03-29T03:00:43.064Z,1.35
2023-03-29T03:03:11.915Z,1.30
2023-03-29T03:05:39.851Z,1.31
2023-03-29T03:08:08.531Z,1.28
2023-03-29T03:10:37.321Z,1.29
2023-03-29T03:13:05.176Z,1.33
2023-03-29T03:15:35.572Z,1.31
2023-03-29T03:18:04.863Z,1.25
2023-03-29T03:20:33.263Z,1.28
2023-03-29T03:23:03.263Z,1.18
2023-03-29T03:25:31.634Z,1.08
2023-03-29T03:27:59.432Z,1.11
2023-03-29T03:30:27.146Z,1.07
2023-03-29T03:32:55.658Z,1.05
2023-03-29T03:35:25.023Z,0.96
2023-03-29T03:37:52.764Z,0.94
2023-03-29T03:40:20.890Z,0.96
2023-03-29T03:42:48.510Z,0.92
2023-03-29T03:45:16.542Z,0.86
2023-03-29T03:47:44.301Z,0.82
2023-03-29T03:50:13.640Z,0.82
2023-03-29T03:52:42.653Z,0.78
2023-03-29T03:55:10.670Z,0.81
2023-03-29T03:57:38.365Z,0.80
2023-03-29T04:00:19.128Z,0.80
2023-03-29T04:02:48.217Z,0.79
2023-03-29T04:05:17.203Z,0.81
2023-03-29T04:07:46.291Z,0.75
2023-03-29T04:10:14.019Z,0.75
2023-03-29T04:12:41.719Z,0.75
2023-03-29T04:15:10.460Z,0.81
2023-03-29T04:17:38.777Z,0.78
2023-03-29T04:20:11.502Z,0.81
2023-03-29T04:22:39.385Z,0.77
2023-03-29T04:25:10.292Z,0.81
2023-03-29T04:27:38.125Z,0.82
2023-03-29T04:30:07.248Z,0.81
2023-03-29T04:32:34.932Z,0.83
2023-03-29T04:35:04.727Z,0.86
2023-03-29T04:37:32.470Z,0.90
2023-03-29T04:40:01.226Z,0.97
2023-03-29T04:42:30.250Z,0.96
2023-03-29T04:44:58.493Z,0.93
2023-03-29T04:47:29.900Z,0.94
2023-03-29T04:49:57.935Z,0.94
2023-03-29T04:52:26.370Z,0.98
2023-03-29T04:54:54.047Z,0.92
2023-03-29T04:57:21.719Z,0.98
2023-03-29T04:59:50.739Z,1.02
2023-03-29T05:02:18.652Z,1.02
2023-03-29T05:04:46.377Z,1.01
2023-03-29T05:10:12.887Z,1.03
2023-03-29T05:12:40.629Z,1.04
2023-03-29T05:15:11.069Z,1.03
2023-03-29T05:17:39.327Z,0.95
2023-03-29T05:20:11.104Z,1.11
2023-03-29T05:22:40.153Z,1.13
2023-03-29T05:25:10.667Z,1.24
2023-03-29T05:27:38.150Z,1.26
2023-03-29T05:30:07.079Z,1.26
2023-03-29T05:32:37.974Z,1.28
2023-03-29T05:35:06.673Z,1.28
2023-03-29T05:37:34.643Z,1.30
2023-03-29T05:40:10.070Z,1.25
2023-03-29T05:42:38.634Z,1.34
2023-03-29T05:45:07.492Z,1.33
2023-03-29T05:47:36.858Z,1.36
2023-03-29T05:50:05.008Z,1.47
2023-03-29T05:52:32.627Z,1.49
2023-03-29T05:55:00.579Z,1.50
2023-03-29T05:57:28.305Z,1.51
2023-03-29T05:59:56.478Z,1.57
2023-03-29T06:02:25.663Z,1.66
2023-03-29T06:04:55.213Z,1.61
2023-03-29T06:07:23.352Z,1.56
2023-03-29T06:09:51.003Z,1.60
2023-03-29T06:12:20.119Z,1.50
2023-03-29T06:14:48.090Z,1.69
2023-03-29T06:17:15.862Z,1.85
2023-03-29T06:19:44.276Z,1.84
2023-03-29T06:22:14.896Z,1.89
2023-03-29T06:24:42.782Z,1.98
2023-03-29T06:27:10.417Z,2.04
2023-03-29T06:29:38.091Z,2.02
2023-03-29T06:32:06.295Z,2.06
2023-03-29T06:34:36.069Z,2.26
2023-03-29T06:37:05.871Z,2.27
2023-03-29T06:39:35.654Z,2.31
2023-03-29T06:42:13.030Z,2.16
2023-03-29T06:44:48.310Z,2.22
2023-03-29T06:47:17.183Z,2.28
2023-03-29T06:49:44.921Z,2.34
2023-03-29T06:52:12.589Z,2.37
2023-03-29T06:54:41.719Z,2.39
2023-03-29T06:57:10.322Z,2.57
2023-03-29T06:59:38.096Z,2.55
2023-03-29T07:02:05.881Z,2.63
2023-03-29T07:04:35.151Z,2.60
2023-03-29T07:07:03.485Z,2.75
2023-03-29T07:09:32.182Z,2.80
2023-03-29T07:12:01.538Z,2.96
2023-03-29T07:14:30.042Z,3.04
2023-03-29T07:16:58.501Z,3.11
2023-03-29T07:19:27.348Z,3.10
2023-03-29T07:21:56.388Z,3.21
2023-03-29T07:24:24.033Z,3.19
2023-03-29T07:27:03.297Z,3.21
2023-03-29T07:29:33.776Z,3.26
2023-03-29T07:32:01.419Z,3.28
2023-03-29T07:34:29.918Z,3.41
2023-03-29T07:36:57.667Z,3.34
2023-03-29T07:39:26.502Z,3.62
2023-03-29T07:41:54.170Z,3.39
2023-03-29T07:44:23.316Z,3.46
2023-03-29T07:46:52.363Z,3.72
2023-03-29T07:49:22.120Z,3.71
2023-03-29T07:51:50.263Z,3.83
2023-03-29T07:54:18.192Z,3.88
2023-03-29T07:56:46.088Z,3.94
2023-03-29T07:59:13.999Z,4.04
2023-03-29T08:01:41.926Z,4.02
2023-03-29T08:04:11.095Z,4.11
2023-03-29T08:06:39.344Z,4.30
2023-03-29T08:09:07.025Z,4.38
2023-03-29T08:11:34.675Z,4.60
2023-03-29T08:14:02.510Z,4.58
2023-03-29T08:16:30.255Z,4.67
2023-03-29T08:18:58.029Z,4.86
2023-03-29T08:21:27.401Z,4.87
2023-03-29T08:23:55.071Z,4.82
2023-03-29T08:26:22.708Z,4.91
2023-03-29T08:28:50.524Z,4.97
2023-03-29T08:31:18.265Z,5.01
2023-03-29T08:33:46.333Z,5.08
2023-03-29T08:36:14.034Z,5.15
2023-03-29T08:38:43.238Z,5.14
2023-03-29T08:41:28.230Z,5.14
2023-03-29T08:44:12.365Z,5.25
2023-03-29T08:46:50.187Z,5.43
2023-03-29T08:49:19.894Z,5.77
2023-03-29T08:51:52.863Z,5.69
2023-03-29T08:54:27.065Z,5.91
2023-03-29T08:56:59.417Z,6.00
2023-03-29T08:59:30.342Z,6.02
2023-03-29T09:02:00.109Z,6.27
2023-03-29T09:04:30.438Z,6.52
2023-03-29T09:06:58.584Z,6.63
2023-03-29T09:09:33.453Z,6.65
2023-03-29T09:12:20.825Z,6.60
2023-03-29T09:15:01.613Z,6.84
2023-03-29T09:17:40.805Z,7.00
2023-03-29T09:20:23.777Z,7.20
2023-03-29T09:23:04.737Z,7.29
2023-03-29T09:25:53.453Z,7.46
2023-03-29T09:28:31.043Z,7.57
2023-03-29T09:31:05.034Z,7.42
2023-03-29T09:33:42.744Z,7.46
2023-03-29T09:36:15.573Z,7.37
2023-03-29T09:38:47.083Z,7.46
2023-03-29T09:41:22.439Z,7.23
2023-03-29T09:43:52.388Z,7.39
2023-03-29T09:46:23.991Z,7.52
2023-03-29T09:48:52.588Z,7.60
2023-03-29T09:51:24.161Z,7.74
2023-03-29T09:53:52.004Z,7.97
2023-03-29T09:56:21.432Z,8.32
2023-03-29T09:58:49.124Z,8.42
2023-03-29T10:01:18.825Z,8.56
2023-03-29T10:03:51.410Z,8.70
2023-03-29T10:06:23.239Z,8.83
2023-03-29T10:08:57.627Z,9.16
2023-03-29T10:11:31.829Z,9.01
2023-03-29T10:14:04.293Z,8.91
2023-03-29T10:16:37.406Z,8.82
2023-03-29T10:19:19.157Z,8.58
2023-03-29T10:21:49.842Z,9.02
2023-03-29T10:24:20.990Z,9.08
2023-03-29T10:26:55.253Z,9.13
2023-03-29T10:29:24.899Z,9.18
2023-03-29T10:31:53.315Z,9.21
2023-03-29T10:34:25.802Z,9.21
2023-03-29T10:36:59.384Z,9.15
2023-03-29T10:39:29.926Z,9.40
2023-03-29T10:41:59.645Z,9.40
2023-03-29T10:44:32.875Z,9.45
2023-03-29T10:47:10.228Z,9.39
2023-03-29T10:49:42.069Z,9.49
2023-03-29T10:52:10.194Z,9.49
2023-03-29T10:54:38.266Z,9.42
2023-03-29T10:57:10.363Z,9.46
2023-03-29T10:59:44.889Z,9.52
2023-03-29T11:02:50.278Z,9.39
2023-03-29T11:05:28.767Z,9.31
2023-03-29T11:08:20.662Z,9.41
2023-03-29T11:10:56.722Z,9.27
2023-03-29T11:13:34.006Z,9.21
2023-03-29T11:16:11.130Z,9.14
2023-03-29T11:19:04.755Z,9.13
2023-03-29T11:21:43.113Z,9.05
2023-03-29T11:24:31.161Z,9.00
2023-03-29T11:27:10.379Z,8.97
2023-03-29T11:29:52.741Z,9.10
2023-03-29T11:32:28.993Z,9.16
2023-03-29T11:35:07.724Z,9.14
2023-03-29T11:37:41.963Z,9.13
2023-03-29T11:40:35.961Z,9.01
2023-03-29T11:43:07.035Z,9.13
2023-03-29T11:45:39.858Z,9.18
2023-03-29T11:48:14.011Z,9.25
2023-03-29T11:50:48.558Z,9.32
2023-03-29T11:53:21.261Z,9.38
2023-03-29T11:55:51.636Z,9.36
2023-03-29T11:58:27.760Z,9.39
2023-03-29T12:01:02.718Z,9.41
2023-03-29T12:03:39.971Z,9.44
2023-03-29T12:06:15.814Z,9.52
2023-03-29T12:08:47.048Z,9.41
2023-03-29T12:11:21.370Z,9.46
2023-03-29T12:13:52.522Z,9.56
2023-03-29T12:16:27.442Z,9.40
2023-03-29T12:18:57.238Z,9.47
2023-03-29T12:21:27.907Z,9.60
2023-03-29T12:23:55.422Z,9.75
2023-03-29T12:26:37.974Z,9.85
2023-03-29T12:29:23.435Z,9.96
2023-03-29T12:32:02.572Z,9.71
2023-03-29T12:34:43.549Z,9.85
2023-03-29T12:37:25.515Z,9.93
2023-03-29T12:39:53.608Z,9.84
2023-03-29T12:42:23.192Z,9.80
2023-03-29T12:44:53.287Z,9.80
2023-03-29T12:47:25.626Z,9.65
2023-03-29T12:49:57.280Z,9.57
2023-03-29T12:52:28.645Z,9.50
2023-03-29T12:54:57.409Z,9.45
2023-03-29T12:57:29.706Z,9.53
2023-03-29T12:59:57.341Z,9.57
2023-03-29T13:02:36.971Z,9.56
2023-03-29T13:05:07.426Z,9.59
2023-03-29T13:07:47.703Z,9.60
2023-03-29T13:10:52.877Z,9.64
2023-03-29T13:13:26.110Z,9.57
2023-03-29T13:15:54.153Z,9.64
2023-03-29T13:18:35.506Z,9.64
2023-03-29T13:21:12.365Z,9.55
2023-03-29T13:23:49.819Z,9.64
2023-03-29T13:26:31.464Z,9.73
2023-03-29T13:29:18.718Z,9.68
2023-03-29T13:31:57.299Z,9.60
2023-03-29T13:34:37.826Z,9.64
2023-03-29T13:37:14.687Z,9.75
2023-03-29T13:39:51.140Z,9.79
2023-03-29T13:42:23.571Z,9.72
2023-03-29T13:44:51.642Z,9.75
2023-03-29T13:47:48.948Z,9.80
2023-03-29T13:50:38.126Z,9.71
2023-03-29T13:53:13.695Z,9.61
2023-03-29T13:55:48.233Z,9.67
2023-03-29T13:58:27.348Z,9.79
2023-03-29T14:01:00.278Z,9.60
2023-03-29T14:03:30.558Z,9.61
2023-03-29T14:06:02.044Z,9.65
2023-03-29T14:08:33.989Z,9.76
2023-03-29T14:11:05.843Z,9.68
2023-03-29T14:13:34.591Z,9.67
2023-03-29T14:16:04.951Z,9.68
2023-03-29T14:18:34.854Z,9.68
2023-03-29T14:21:04.976Z,9.68
2023-03-29T14:23:36.394Z,9.60
2023-03-29T14:26:10.524Z,9.49
2023-03-29T14:28:44.513Z,9.59
2023-03-29T14:31:18.682Z,9.56
2023-03-29T14:33:46.912Z,9.59
2023-03-29T14:36:18.591Z,9.52
2023-03-29T14:38:51.053Z,9.59
2023-03-29T14:41:18.726Z,9.54
2023-03-29T14:43:48.115Z,9.61
2023-03-29T14:46:21.667Z,9.46
2023-03-29T14:48:51.555Z,9.51
2023-03-29T14:51:21.129Z,9.49
2023-03-29T14:53:50.593Z,9.39
2023-03-29T14:56:24.012Z,9.37
2023-03-29T14:58:55.357Z,9.41
2023-03-29T15:01:24.868Z,9.49
2023-03-29T15:03:56.155Z,9.55
2023-03-29T15:06:26.320Z,9.48
2023-03-29T15:09:04.195Z,9.49
2023-03-29T15:11:34.878Z,9.54
2023-03-29T15:14:05.638Z,9.44
2023-03-29T15:16:34.025Z,9.56
2023-03-29T15:19:02.939Z,9.58
2023-03-29T15:21:35.291Z,9.60
2023-03-29T15:24:05.196Z,9.61
2023-03-29T15:26:35.044Z,9.69
2023-03-29T15:29:08.028Z,9.56
2023-03-29T15:31:37.803Z,9.52
2023-03-29T15:34:09.076Z,9.49
2023-03-29T15:36:42.006Z,9.54
2023-03-29T15:39:13.280Z,9.50
2023-03-29T15:41:41.094Z,9.52
2023-03-29T15:44:09.320Z,9.58
2023-03-29T15:46:37.049Z,9.50
2023-03-29T15:49:05.002Z,9.47
2023-03-29T15:51:32.864Z,9.53
2023-03-29T15:54:01.846Z,9.50
2023-03-29T15:56:29.916Z,9.49
2023-03-29T15:58:57.650Z,9.44
2023-03-29T16:01:33.512Z,9.46
2023-03-29T16:04:01.578Z,9.56
2023-03-29T16:06:29.239Z,9.43
2023-03-29T16:08:57.523Z,9.46
2023-03-29T16:11:26.978Z,9.59
2023-03-29T16:13:54.665Z,9.50
2023-03-29T16:16:22.535Z,9.49
2023-03-29T16:18:50.516Z,9.38
2023-03-29T16:21:20.737Z,9.29
2023-03-29T16:23:48.602Z,9.31
2023-03-29T16:26:17.789Z,9.32
2023-03-29T16:28:46.794Z,9.41
2023-03-29T16:31:15.050Z,9.33
2023-03-29T16:33:42.831Z,9.37
2023-03-29T16:36:11.934Z,9.27
2023-03-29T16:38:39.738Z,9.44
2023-03-29T16:41:08.542Z,9.58
2023-03-29T16:43:38.541Z,9.49
2023-03-29T16:46:08.747Z,9.51
2023-03-29T16:48:36.570Z,9.44
2023-03-29T16:51:04.389Z,9.50
2023-03-29T16:53:32.046Z,9.40
2023-03-29T16:56:05.572Z,9.44
2023-03-29T16:58:33.461Z,9.47
2023-03-29T17:01:10.720Z,9.42
2023-03-29T17:03:39.316Z,9.37
2023-03-29T17:06:08.821Z,9.53
2023-03-29T17:08:36.734Z,9.38
2023-03-29T17:11:04.797Z,9.41
2023-03-29T17:13:32.575Z,9.45
2023-03-29T17:16:01.347Z,9.33
2023-03-29T17:18:30.904Z,9.35
2023-03-29T17:20:59.774Z,9.29
2023-03-29T17:23:27.716Z,9.27
2023-03-29T17:25:56.578Z,9.28
2023-03-29T17:28:24.506Z,9.40
2023-03-29T17:30:52.651Z,9.27
2023-03-29T17:33:22.453Z,9.39
2023-03-29T17:35:51.932Z,9.39
2023-03-29T17:38:19.729Z,9.26
2023-03-29T17:40:53.198Z,9.16
2023-03-29T17:43:21.255Z,9.15
2023-03-29T17:45:51.601Z,9.13
2023-03-29T17:48:19.696Z,9.17
2023-03-29T17:50:47.685Z,9.23
2023-03-29T17:53:16.676Z,9.23
2023-03-29T17:55:44.350Z,9.18
2023-03-29T17:58:12.130Z,9.11
2023-03-29T18:00:39.809Z,9.11
2023-03-29T18:03:07.578Z,9.11
2023-03-29T18:05:35.547Z,9.08
2023-03-29T18:08:03.421Z,9.19
2023-03-29T18:10:32.563Z,9.11
2023-03-29T18:13:00.535Z,9.10
2023-03-29T18:15:28.304Z,9.08
2023-03-29T18:17:56.353Z,9.19
2023-03-29T18:20:23.998Z,9.09
2023-03-29T18:22:51.702Z,8.98
2023-03-29T18:25:20.119Z,8.95
2023-03-29T18:27:49.998Z,9.04
2023-03-29T18:30:17.896Z,8.98
2023-03-29T18:32:45.736Z,8.99
2023-03-29T18:35:13.439Z,8.92
2023-03-29T18:37:41.078Z,8.90
2023-03-29T18:40:10.176Z,8.97
2023-03-29T18:42:37.880Z,8.99
2023-03-29T18:45:09.300Z,8.96
2023-03-29T18:47:37.038Z,9.02
2023-03-29T18:50:05.222Z,8.88
2023-03-29T18:52:33.176Z,8.87
2023-03-29T18:55:00.888Z,8.85
2023-03-29T18:57:28.711Z,8.84
2023-03-29T18:59:56.474Z,8.85
2023-03-29T19:02:25.824Z,8.85
2023-03-29T19:04:53.533Z,9.02
2023-03-29T19:07:21.951Z,9.01
2023-03-29T19:09:49.626Z,8.90
2023-03-29T19:12:17.310Z,8.88
2023-03-29T19:14:45.025Z,8.91
2023-03-29T19:17:12.682Z,8.94
2023-03-29T19:19:41.752Z,8.87
2023-03-29T19:22:09.553Z,8.85
2023-03-29T19:24:37.223Z,8.82
2023-03-29T19:27:06.460Z,8.81
2023-03-29T19:29:34.256Z,8.81
2023-03-29T19:32:01.965Z,8.78
2023-03-29T19:34:30.464Z,8.77
2023-03-29T19:37:00.782Z,8.83
2023-03-29T19:39:29.647Z,8.84
2023-03-29T19:41:57.610Z,8.79
2023-03-29T19:44:25.509Z,8.81
2023-03-29T19:46:53.259Z,8.79
2023-03-29T19:49:21.191Z,8.79
2023-03-29T19:51:48.910Z,8.80
2023-03-29T19:54:17.994Z,8.79
2023-03-29T19:56:46.308Z,8.77
2023-03-29T19:59:15.123Z,8.73
2023-03-29T20:01:51.255Z,8.74
2023-03-29T20:04:19.279Z,8.73
2023-03-29T20:06:47.353Z,8.68
2023-03-29T20:09:15.985Z,8.67
2023-03-29T20:11:46.579Z,8.63
2023-03-29T20:14:14.713Z,8.58
2023-03-29T20:16:43.473Z,8.58
2023-03-29T20:19:13.804Z,8.57
2023-03-29T20:21:41.526Z,8.55
2023-03-29T20:24:09.637Z,8.52
2023-03-29T20:26:37.604Z,8.47
2023-03-29T20:29:07.239Z,8.46
2023-03-29T20:31:34.931Z,8.47
2023-03-29T20:34:02.611Z,8.45
2023-03-29T20:36:30.775Z,8.45
2023-03-29T20:38:59.149Z,8.50
2023-03-29T20:41:27.152Z,8.49
2023-03-29T20:43:59.808Z,8.47
2023-03-29T20:46:34.124Z,8.45
2023-03-29T20:49:02.762Z,8.46
2023-03-29T20:51:31.898Z,8.44
2023-03-29T20:54:04.410Z,8.44
2023-03-29T20:56:33.842Z,8.45
2023-03-29T20:59:02.891Z,8.46
2023-03-29T21:01:31.986Z,8.55
2023-03-29T21:03:59.778Z,8.52
2023-03-29T21:06:27.552Z,8.49
2023-03-29T21:08:55.199Z,8.43
2023-03-29T21:11:22.875Z,8.48
2023-03-29T21:13:52.867Z,8.43
2023-03-29T21:16:20.696Z,8.51
2023-03-29T21:18:49.854Z,8.46
2023-03-29T21:21:17.549Z,8.47
2023-03-29T21:23:45.257Z,8.43
2023-03-29T21:26:13.157Z,8.43
2023-03-29T21:28:42.352Z,8.40
2023-03-29T21:31:10.629Z,8.41
2023-03-29T21:33:38.285Z,8.39
2023-03-29T21:36:08.161Z,8.35
2023-03-29T21:38:35.943Z,8.32
2023-03-29T21:41:03.764Z,8.31
2023-03-29T21:43:31.529Z,8.37
2023-03-29T21:45:59.207Z,8.33
2023-03-29T21:48:27.141Z,8.32
2023-03-29T21:50:54.816Z,8.31
2023-03-29T21:53:24.508Z,8.32
2023-03-29T21:55:52.546Z,8.33
2023-03-29T21:58:20.739Z,8.32
2023-03-29T22:00:49.361Z,8.34
2023-03-29T22:03:17.483Z,8.28
2023-03-29T22:05:56.153Z,8.27
2023-03-29T22:08:26.255Z,8.24
2023-03-29T22:10:56.596Z,8.21
2023-03-29T22:13:25.250Z,8.22
2023-03-29T22:15:58.462Z,8.19
2023-03-29T22:18:27.787Z,8.20
2023-03-29T22:20:55.626Z,8.17
2023-03-29T22:23:24.808Z,8.14
2023-03-29T22:25:53.942Z,8.12
2023-03-29T22:28:21.598Z,8.10
2023-03-29T22:30:49.295Z,8.13
2023-03-29T22:33:17.133Z,8.06
2023-03-29T22:35:44.805Z,8.04
2023-03-29T22:38:12.458Z,8.11
2023-03-29T22:40:41.102Z,8.11
2023-03-29T22:43:10.158Z,8.11
2023-03-29T22:45:37.968Z,8.20
2023-03-29T22:48:05.910Z,8.20
2023-03-29T22:50:33.895Z,8.17
2023-03-29T22:53:01.566Z,8.16
2023-03-29T22:55:29.251Z,8.18
2023-03-29T22:57:56.871Z,8.18
2023-03-29T23:00:26.323Z,8.16
2023-03-29T23:02:54.057Z,8.17
2023-03-29T23:05:21.794Z,8.17
2023-03-29T23:07:49.678Z,8.21
2023-03-29T23:10:17.431Z,8.16
2023-03-29T23:12:45.050Z,8.18
2023-03-29T23:15:13.488Z,8.22
2023-03-29T23:17:42.562Z,8.17
2023-03-29T23:20:11.647Z,8.15
2023-03-29T23:22:39.673Z,8.15
2023-03-29T23:25:08.525Z,8.13
2023-03-29T23:27:36.245Z,8.15
2023-03-29T23:30:03.938Z,8.13
2023-03-29T23:32:31.649Z,8.13
2023-03-29T23:35:01.167Z,8.12
2023-03-29T23:37:28.791Z,8.10
2023-03-29T23:39:56.388Z,8.08
2023-03-29T23:42:24.053Z,8.07
2023-03-29T23:44:51.750Z,8.05
2023-03-29T23:47:19.482Z,8.04
2023-03-29T23:49:47.766Z,8.02
2023-03-29T23:52:17.374Z,8.00
2023-03-29T23:54:45.125Z,7.96
2023-03-29T23:57:12.923Z,7.94
2023-03-29T23:59:40.716Z,7.89
